sensor_id;sensor_type;location;lat;lon;timestamp;temperature;humidity
11569;DHT22;5840;46.894;15.542;2024-01-30T00:01:06;-1.60;99.90
11569;DHT22;5840;46.894;15.542;2024-01-30T00:03:32;-1.60;99.90
11569;DHT22;5840;46.894;15.542;2024-01-30T00:05:59;-1.60;99.90
11569;DHT22;5840;46.894;15.542;2024-01-30T00:08:25;-1.60;99.90
11569;DHT22;5840;46.894;15.542;2024-01-30T00:10:51;-1.60;99.90
11569;DHT22;5840;46.894;15.542;2024-01-30T00:13:18;-1.60;99.90
11569;DHT22;5840;46.894;15.542;2024-01-30T00:15:46;-1.60;99.90
11569;DHT22;5840;46.894;15.542;2024-01-30T00:25:40;-1.70;99.90
11569;DHT22;5840;46.894;15.542;2024-01-30T00:28:07;-1.70;99.90
11569;DHT22;5840;46.894;15.542;2024-01-30T00:30:33;-1.70;99.90
11569;DHT22;5840;46.894;15.542;2024-01-30T00:32:59;-1.70;99.90
11569;DHT22;5840;46.894;15.542;2024-01-30T00:35:25;-1.70;99.90
11569;DHT22;5840;46.894;15.542;2024-01-30T00:37:52;-1.60;99.90
11569;DHT22;5840;46.894;15.542;2024-01-30T00:40:19;-1.70;99.90
11569;DHT22;5840;46.894;15.542;2024-01-30T00:42:46;-1.70;99.90
11569;DHT22;5840;46.894;15.542;2024-01-30T00:50:16;-1.80;99.90
11569;DHT22;5840;46.894;15.542;2024-01-30T00:52:42;-1.80;99.90
11569;DHT22;5840;46.894;15.542;2024-01-30T00:55:10;-1.80;99.90
11569;DHT22;5840;46.894;15.542;2024-01-30T00:57:37;-1.80;99.90
11569;DHT22;5840;46.894;15.542;2024-01-30T01:00:06;-1.80;99.90
11569;DHT22;5840;46.894;15.542;2024-01-30T01:02:34;-1.80;99.90
11569;DHT22;5840;46.894;15.542;2024-01-30T01:05:00;-1.80;99.90
11569;DHT22;5840;46.894;15.542;2024-01-30T01:07:27;-1.80;99.90
11569;DHT22;5840;46.894;15.542;2024-01-30T01:16:58;-1.80;99.90
11569;DHT22;5840;46.894;15.542;2024-01-30T01:19:24;-1.80;99.90
11569;DHT22;5840;46.894;15.542;2024-01-30T01:21:51;-1.80;99.90
11569;DHT22;5840;46.894;15.542;2024-01-30T01:24:17;-1.90;99.90
11569;DHT22;5840;46.894;15.542;2024-01-30T01:26:43;-1.90;99.90
11569;DHT22;5840;46.894;15.542;2024-01-30T01:29:09;-1.90;99.90
11569;DHT22;5840;46.894;15.542;2024-01-30T01:31:37;-1.90;99.90
11569;DHT22;5840;46.894;15.542;2024-01-30T01:34:09;-2.00;99.90
11569;DHT22;5840;46.894;15.542;2024-01-30T01:44:05;-2.00;99.90
11569;DHT22;5840;46.894;15.542;2024-01-30T01:46:33;-2.10;99.90
11569;DHT22;5840;46.894;15.542;2024-01-30T01:49:00;-2.10;99.90
11569;DHT22;5840;46.894;15.542;2024-01-30T01:51:29;-2.10;99.90
11569;DHT22;5840;46.894;15.542;2024-01-30T01:53:57;-2.20;99.90
11569;DHT22;5840;46.894;15.542;2024-01-30T01:56:24;-2.20;99.90
11569;DHT22;5840;46.894;15.542;2024-01-30T01:58:55;-2.20;99.90
11569;DHT22;5840;46.894;15.542;2024-01-30T02:04:02;-2.20;99.90
11569;DHT22;5840;46.894;15.542;2024-01-30T02:06:28;-2.20;99.90
11569;DHT22;5840;46.894;15.542;2024-01-30T02:08:55;-2.20;99.90
11569;DHT22;5840;46.894;15.542;2024-01-30T02:11:22;-2.20;99.90
11569;DHT22;5840;46.894;15.542;2024-01-30T02:13:49;-2.20;99.90
11569;DHT22;5840;46.894;15.542;2024-01-30T02:16:15;-2.20;99.90
11569;DHT22;5840;46.894;15.542;2024-01-30T02:18:42;-2.20;99.90
11569;DHT22;5840;46.894;15.542;2024-01-30T02:21:12;-2.20;99.90
11569;DHT22;5840;46.894;15.542;2024-01-30T02:28:37;-2.20;99.90
11569;DHT22;5840;46.894;15.542;2024-01-30T02:31:04;-2.30;99.90
11569;DHT22;5840;46.894;15.542;2024-01-30T02:33:30;-2.30;99.90
11569;DHT22;5840;46.894;15.542;2024-01-30T02:35:56;-2.40;99.90
11569;DHT22;5840;46.894;15.542;2024-01-30T02:38:22;-2.40;99.90
11569;DHT22;5840;46.894;15.542;2024-01-30T02:40:49;-2.40;99.90
11569;DHT22;5840;46.894;15.542;2024-01-30T02:43:16;-2.40;99.90
11569;DHT22;5840;46.894;15.542;2024-01-30T02:45:43;-2.40;99.90
11569;DHT22;5840;46.894;15.542;2024-01-30T02:53:13;-2.40;99.90
11569;DHT22;5840;46.894;15.542;2024-01-30T02:55:39;-2.40;99.90
11569;DHT22;5840;46.894;15.542;2024-01-30T02:58:06;-2.40;99.90
11569;DHT22;5840;46.894;15.542;2024-01-30T03:00:32;-2.50;99.90
11569;DHT22;5840;46.894;15.542;2024-01-30T03:02:58;-2.50;99.90
11569;DHT22;5840;46.894;15.542;2024-01-30T03:05:25;-2.50;99.90
11569;DHT22;5840;46.894;15.542;2024-01-30T03:07:51;-2.50;99.90
11569;DHT22;5840;46.894;15.542;2024-01-30T03:10:18;-2.60;99.90
11569;DHT22;5840;46.894;15.542;2024-01-30T03:20:13;-2.70;99.90
11569;DHT22;5840;46.894;15.542;2024-01-30T03:22:39;-2.70;99.90
11569;DHT22;5840;46.894;15.542;2024-01-30T03:25:06;-2.70;99.90
11569;DHT22;5840;46.894;15.542;2024-01-30T03:27:32;-2.70;99.90
11569;DHT22;5840;46.894;15.542;2024-01-30T03:29:59;-2.70;99.90
11569;DHT22;5840;46.894;15.542;2024-01-30T03:32:25;-2.80;99.90
11569;DHT22;5840;46.894;15.542;2024-01-30T03:34:51;-2.80;99.90
11569;DHT22;5840;46.894;15.542;2024-01-30T03:37:18;-2.80;99.90
11569;DHT22;5840;46.894;15.542;2024-01-30T03:44:47;-2.70;99.90
11569;DHT22;5840;46.894;15.542;2024-01-30T03:47:13;-2.70;99.90
11569;DHT22;5840;46.894;15.542;2024-01-30T03:49:40;-2.70;99.90
11569;DHT22;5840;46.894;15.542;2024-01-30T03:52:06;-2.70;99.90
11569;DHT22;5840;46.894;15.542;2024-01-30T03:54:32;-2.80;99.90
11569;DHT22;5840;46.894;15.542;2024-01-30T03:56:59;-2.80;99.90
11569;DHT22;5840;46.894;15.542;2024-01-30T03:59:25;-2.80;99.90
11569;DHT22;5840;46.894;15.542;2024-01-30T04:04:30;-2.80;99.90
11569;DHT22;5840;46.894;15.542;2024-01-30T04:06:56;-2.90;99.90
11569;DHT22;5840;46.894;15.542;2024-01-30T04:09:22;-3.00;99.90
11569;DHT22;5840;46.894;15.542;2024-01-30T04:11:48;-3.00;99.90
11569;DHT22;5840;46.894;15.542;2024-01-30T04:14:15;-3.10;99.90
11569;DHT22;5840;46.894;15.542;2024-01-30T04:16:41;-3.10;99.90
11569;DHT22;5840;46.894;15.542;2024-01-30T04:19:07;-3.10;99.90
11569;DHT22;5840;46.894;15.542;2024-01-30T04:24:11;-3.10;99.90
11569;DHT22;5840;46.894;15.542;2024-01-30T04:26:37;-3.10;99.90
11569;DHT22;5840;46.894;15.542;2024-01-30T04:29:04;-3.10;99.90
11569;DHT22;5840;46.894;15.542;2024-01-30T04:31:30;-3.20;99.90
11569;DHT22;5840;46.894;15.542;2024-01-30T04:33:56;-3.20;99.90
11569;DHT22;5840;46.894;15.542;2024-01-30T04:36:22;-3.20;99.90
11569;DHT22;5840;46.894;15.542;2024-01-30T04:38:48;-3.30;99.90
11569;DHT22;5840;46.894;15.542;2024-01-30T04:41:15;-3.30;99.90
11569;DHT22;5840;46.894;15.542;2024-01-30T04:51:06;-3.30;99.90
11569;DHT22;5840;46.894;15.542;2024-01-30T04:53:32;-3.20;99.90
11569;DHT22;5840;46.894;15.542;2024-01-30T04:55:58;-3.20;99.90
11569;DHT22;5840;46.894;15.542;2024-01-30T04:58:24;-3.20;99.90
11569;DHT22;5840;46.894;15.542;2024-01-30T05:00:51;-3.20;99.90
11569;DHT22;5840;46.894;15.542;2024-01-30T05:03:17;-3.20;99.90
11569;DHT22;5840;46.894;15.542;2024-01-30T05:05:43;-3.40;99.90
11569;DHT22;5840;46.894;15.542;2024-01-30T05:08:10;-3.40;99.90
11569;DHT22;5840;46.894;15.542;2024-01-30T05:18:06;-3.50;99.90
11569;DHT22;5840;46.894;15.542;2024-01-30T05:20:32;-3.50;99.90
11569;DHT22;5840;46.894;15.542;2024-01-30T05:22:58;-3.50;99.90
11569;DHT22;5840;46.894;15.542;2024-01-30T05:25:24;-3.50;99.90
11569;DHT22;5840;46.894;15.542;2024-01-30T05:27:50;-3.50;99.90
11569;DHT22;5840;46.894;15.542;2024-01-30T05:30:17;-3.50;99.90
11569;DHT22;5840;46.894;15.542;2024-01-30T05:32:43;-3.50;99.90
11569;DHT22;5840;46.894;15.542;2024-01-30T05:35:10;-3.50;99.90
11569;DHT22;5840;46.894;15.542;2024-01-30T05:42:40;-3.50;99.90
11569;DHT22;5840;46.894;15.542;2024-01-30T05:45:07;-3.60;99.90
11569;DHT22;5840;46.894;15.542;2024-01-30T05:47:33;-3.60;99.90
11569;DHT22;5840;46.894;15.542;2024-01-30T05:49:59;-3.60;99.90
11569;DHT22;5840;46.894;15.542;2024-01-30T05:52:26;-3.60;99.90
11569;DHT22;5840;46.894;15.542;2024-01-30T05:54:52;-3.60;99.90
11569;DHT22;5840;46.894;15.542;2024-01-30T05:57:18;-3.60;99.90
11569;DHT22;5840;46.894;15.542;2024-01-30T05:59:45;-3.70;99.90
11569;DHT22;5840;46.894;15.542;2024-01-30T06:07:16;-3.60;99.90
11569;DHT22;5840;46.894;15.542;2024-01-30T06:09:43;-3.70;99.90
11569;DHT22;5840;46.894;15.542;2024-01-30T06:12:09;-3.70;99.90
11569;DHT22;5840;46.894;15.542;2024-01-30T06:14:37;-3.70;99.90
11569;DHT22;5840;46.894;15.542;2024-01-30T06:17:03;-3.70;99.90
11569;DHT22;5840;46.894;15.542;2024-01-30T06:19:30;-3.70;99.90
11569;DHT22;5840;46.894;15.542;2024-01-30T06:21:57;-3.70;99.90
11569;DHT22;5840;46.894;15.542;2024-01-30T06:24:24;-3.70;99.90
11569;DHT22;5840;46.894;15.542;2024-01-30T06:34:12;-3.70;99.90
11569;DHT22;5840;46.894;15.542;2024-01-30T06:36:38;-3.70;99.90
11569;DHT22;5840;46.894;15.542;2024-01-30T06:39:05;-3.70;99.90
11569;DHT22;5840;46.894;15.542;2024-01-30T06:41:31;-3.70;99.90
11569;DHT22;5840;46.894;15.542;2024-01-30T06:43:57;-3.70;99.90
11569;DHT22;5840;46.894;15.542;2024-01-30T06:46:23;-3.60;99.90
11569;DHT22;5840;46.894;15.542;2024-01-30T06:48:50;-3.60;99.90
11569;DHT22;5840;46.894;15.542;2024-01-30T06:51:16;-3.60;99.90
11569;DHT22;5840;46.894;15.542;2024-01-30T06:58:46;-3.50;99.90
11569;DHT22;5840;46.894;15.542;2024-01-30T07:01:13;-3.50;99.90
11569;DHT22;5840;46.894;15.542;2024-01-30T07:03:40;-3.50;99.90
11569;DHT22;5840;46.894;15.542;2024-01-30T07:06:06;-3.50;99.90
11569;DHT22;5840;46.894;15.542;2024-01-30T07:08:32;-3.40;99.90
11569;DHT22;5840;46.894;15.542;2024-01-30T07:10:58;-3.40;99.90
11569;DHT22;5840;46.894;15.542;2024-01-30T07:13:25;-3.30;99.90
11569;DHT22;5840;46.894;15.542;2024-01-30T07:15:52;-3.10;99.90
11569;DHT22;5840;46.894;15.542;2024-01-30T07:25:46;-2.30;99.90
11569;DHT22;5840;46.894;15.542;2024-01-30T07:28:14;-1.80;99.90
11569;DHT22;5840;46.894;15.542;2024-01-30T07:30:42;-1.60;99.90
11569;DHT22;5840;46.894;15.542;2024-01-30T07:33:09;-1.40;99.90
11569;DHT22;5840;46.894;15.542;2024-01-30T07:35:35;-1.20;99.90
11569;DHT22;5840;46.894;15.542;2024-01-30T07:38:02;-0.90;99.90
11569;DHT22;5840;46.894;15.542;2024-01-30T07:40:28;-0.60;99.90
11569;DHT22;5840;46.894;15.542;2024-01-30T07:42:56;-0.40;99.90
11569;DHT22;5840;46.894;15.542;2024-01-30T07:52:46;0.10;99.90
11569;DHT22;5840;46.894;15.542;2024-01-30T07:55:47;0.30;99.90
11569;DHT22;5840;46.894;15.542;2024-01-30T07:58:14;0.30;99.90
11569;DHT22;5840;46.894;15.542;2024-01-30T08:00:40;0.50;99.90
11569;DHT22;5840;46.894;15.542;2024-01-30T08:03:07;0.70;99.90
11569;DHT22;5840;46.894;15.542;2024-01-30T08:05:33;1.00;99.90
11569;DHT22;5840;46.894;15.542;2024-01-30T08:08:00;1.30;99.90
11569;DHT22;5840;46.894;15.542;2024-01-30T08:10:26;1.60;99.90
11569;DHT22;5840;46.894;15.542;2024-01-30T08:17:55;2.40;99.90
11569;DHT22;5840;46.894;15.542;2024-01-30T08:20:23;2.60;99.90
11569;DHT22;5840;46.894;15.542;2024-01-30T08:22:50;2.60;99.90
11569;DHT22;5840;46.894;15.542;2024-01-30T08:25:16;2.80;99.90
11569;DHT22;5840;46.894;15.542;2024-01-30T08:27:43;3.00;99.90
11569;DHT22;5840;46.894;15.542;2024-01-30T08:30:10;3.10;99.90
11569;DHT22;5840;46.894;15.542;2024-01-30T08:32:36;3.30;99.90
11569;DHT22;5840;46.894;15.542;2024-01-30T08:35:03;3.50;99.90
11569;DHT22;5840;46.894;15.542;2024-01-30T08:42:33;4.10;99.90
11569;DHT22;5840;46.894;15.542;2024-01-30T08:44:59;4.50;99.90
11569;DHT22;5840;46.894;15.542;2024-01-30T08:47:25;4.60;99.90
11569;DHT22;5840;46.894;15.542;2024-01-30T08:49:51;4.70;99.90
11569;DHT22;5840;46.894;15.542;2024-01-30T08:52:17;4.80;99.90
11569;DHT22;5840;46.894;15.542;2024-01-30T08:54:44;4.90;99.90
11569;DHT22;5840;46.894;15.542;2024-01-30T08:57:10;4.90;99.90
11569;DHT22;5840;46.894;15.542;2024-01-30T08:59:37;5.10;99.90
11569;DHT22;5840;46.894;15.542;2024-01-30T09:09:32;5.40;99.90
11569;DHT22;5840;46.894;15.542;2024-01-30T09:11:58;5.80;99.90
11569;DHT22;5840;46.894;15.542;2024-01-30T09:14:27;6.10;99.90
11569;DHT22;5840;46.894;15.542;2024-01-30T09:16:53;6.20;99.80
11569;DHT22;5840;46.894;15.542;2024-01-30T09:19:20;6.60;99.70
11569;DHT22;5840;46.894;15.542;2024-01-30T09:21:46;6.80;98.90
11569;DHT22;5840;46.894;15.542;2024-01-30T09:24:12;6.90;97.60
11569;DHT22;5840;46.894;15.542;2024-01-30T09:26:39;6.90;97.70
11569;DHT22;5840;46.894;15.542;2024-01-30T09:34:04;6.60;98.50
11569;DHT22;5840;46.894;15.542;2024-01-30T09:36:31;6.40;97.40
11569;DHT22;5840;46.894;15.542;2024-01-30T09:38:57;6.30;97.30
11569;DHT22;5840;46.894;15.542;2024-01-30T09:41:24;6.50;97.70
11569;DHT22;5840;46.894;15.542;2024-01-30T09:43:51;6.70;97.70
11569;DHT22;5840;46.894;15.542;2024-01-30T09:46:18;6.70;98.60
11569;DHT22;5840;46.894;15.542;2024-01-30T09:48:46;6.80;97.70
11569;DHT22;5840;46.894;15.542;2024-01-30T09:51:14;7.00;97.70
11569;DHT22;5840;46.894;15.542;2024-01-30T09:58:44;6.90;96.50
11569;DHT22;5840;46.894;15.542;2024-01-30T10:01:11;6.90;97.70
11569;DHT22;5840;46.894;15.542;2024-01-30T10:03:37;6.90;97.10
11569;DHT22;5840;46.894;15.542;2024-01-30T10:06:03;6.90;97.30
11569;DHT22;5840;46.894;15.542;2024-01-30T10:08:30;6.90;97.70
11569;DHT22;5840;46.894;15.542;2024-01-30T10:10:56;7.00;97.50
11569;DHT22;5840;46.894;15.542;2024-01-30T10:13:23;7.20;98.00
11569;DHT22;5840;46.894;15.542;2024-01-30T10:15:50;7.30;96.70
11569;DHT22;5840;46.894;15.542;2024-01-30T10:23:20;7.20;96.80
11569;DHT22;5840;46.894;15.542;2024-01-30T10:25:47;7.20;96.10
11569;DHT22;5840;46.894;15.542;2024-01-30T10:28:13;7.30;95.10
11569;DHT22;5840;46.894;15.542;2024-01-30T10:30:39;7.40;95.90
11569;DHT22;5840;46.894;15.542;2024-01-30T10:33:05;7.60;95.70
11569;DHT22;5840;46.894;15.542;2024-01-30T10:35:32;7.70;95.60
11569;DHT22;5840;46.894;15.542;2024-01-30T10:37:59;7.70;95.60
11569;DHT22;5840;46.894;15.542;2024-01-30T10:40:28;7.70;95.50
11569;DHT22;5840;46.894;15.542;2024-01-30T10:50:24;7.90;95.40
11569;DHT22;5840;46.894;15.542;2024-01-30T10:52:51;8.00;95.00
11569;DHT22;5840;46.894;15.542;2024-01-30T10:55:18;8.00;95.40
11569;DHT22;5840;46.894;15.542;2024-01-30T10:57:45;8.10;95.20
11569;DHT22;5840;46.894;15.542;2024-01-30T11:00:14;8.10;95.70
11569;DHT22;5840;46.894;15.542;2024-01-30T11:02:43;8.00;95.30
11569;DHT22;5840;46.894;15.542;2024-01-30T11:05:10;8.20;95.90
11569;DHT22;5840;46.894;15.542;2024-01-30T11:07:39;8.30;95.20
11569;DHT22;5840;46.894;15.542;2024-01-30T11:17:40;8.50;93.60
11569;DHT22;5840;46.894;15.542;2024-01-30T11:20:10;8.60;93.10
11569;DHT22;5840;46.894;15.542;2024-01-30T11:22:37;8.70;93.70
11569;DHT22;5840;46.894;15.542;2024-01-30T11:25:04;8.70;93.00
11569;DHT22;5840;46.894;15.542;2024-01-30T11:27:30;8.70;92.80
11569;DHT22;5840;46.894;15.542;2024-01-30T11:30:01;8.70;92.60
11569;DHT22;5840;46.894;15.542;2024-01-30T11:32:28;8.90;92.50
11569;DHT22;5840;46.894;15.542;2024-01-30T11:34:55;8.90;92.40
11569;DHT22;5840;46.894;15.542;2024-01-30T11:42:26;8.90;91.90
11569;DHT22;5840;46.894;15.542;2024-01-30T11:44:53;9.20;92.10
11569;DHT22;5840;46.894;15.542;2024-01-30T11:47:19;9.30;91.50
11569;DHT22;5840;46.894;15.542;2024-01-30T11:49:45;9.20;91.40
11569;DHT22;5840;46.894;15.542;2024-01-30T11:52:11;9.30;90.80
11569;DHT22;5840;46.894;15.542;2024-01-30T11:54:40;9.30;91.20
11569;DHT22;5840;46.894;15.542;2024-01-30T11:57:06;9.40;91.40
11569;DHT22;5840;46.894;15.542;2024-01-30T11:59:33;9.20;91.30
11569;DHT22;5840;46.894;15.542;2024-01-30T12:07:02;9.00;92.00
11569;DHT22;5840;46.894;15.542;2024-01-30T12:09:28;9.00;92.10
11569;DHT22;5840;46.894;15.542;2024-01-30T12:11:55;9.10;91.80
11569;DHT22;5840;46.894;15.542;2024-01-30T12:14:22;9.20;92.10
11569;DHT22;5840;46.894;15.542;2024-01-30T12:16:50;9.10;92.50
11569;DHT22;5840;46.894;15.542;2024-01-30T12:19:23;9.30;92.50
11569;DHT22;5840;46.894;15.542;2024-01-30T12:21:54;9.40;92.00
11569;DHT22;5840;46.894;15.542;2024-01-30T12:24:22;9.50;91.60
11569;DHT22;5840;46.894;15.542;2024-01-30T12:31:53;9.60;91.50
11569;DHT22;5840;46.894;15.542;2024-01-30T12:34:20;9.70;91.30
11569;DHT22;5840;46.894;15.542;2024-01-30T12:36:47;9.60;91.30
11569;DHT22;5840;46.894;15.542;2024-01-30T12:39:14;9.70;91.20
11569;DHT22;5840;46.894;15.542;2024-01-30T12:41:41;9.80;91.00
11569;DHT22;5840;46.894;15.542;2024-01-30T12:44:07;9.60;91.10
11569;DHT22;5840;46.894;15.542;2024-01-30T12:46:34;9.70;91.20
11569;DHT22;5840;46.894;15.542;2024-01-30T12:49:01;9.80;91.00
11569;DHT22;5840;46.894;15.542;2024-01-30T12:56:31;9.50;91.60
11569;DHT22;5840;46.894;15.542;2024-01-30T12:58:57;9.30;91.80
11569;DHT22;5840;46.894;15.542;2024-01-30T13:01:24;9.30;91.20
11569;DHT22;5840;46.894;15.542;2024-01-30T13:03:50;9.10;91.80
11569;DHT22;5840;46.894;15.542;2024-01-30T13:06:16;9.10;92.00
11569;DHT22;5840;46.894;15.542;2024-01-30T13:08:42;9.10;91.90
11569;DHT22;5840;46.894;15.542;2024-01-30T13:11:09;8.90;91.70
11569;DHT22;5840;46.894;15.542;2024-01-30T13:13:36;9.00;92.80
11569;DHT22;5840;46.894;15.542;2024-01-30T13:23:26;8.70;93.20
11569;DHT22;5840;46.894;15.542;2024-01-30T13:25:52;8.90;92.50
11569;DHT22;5840;46.894;15.542;2024-01-30T13:28:19;8.90;92.10
11569;DHT22;5840;46.894;15.542;2024-01-30T13:30:45;8.90;92.90
11569;DHT22;5840;46.894;15.542;2024-01-30T13:33:12;8.80;92.60
11569;DHT22;5840;46.894;15.542;2024-01-30T13:35:38;8.70;92.60
11569;DHT22;5840;46.894;15.542;2024-01-30T13:38:04;8.70;92.60
11569;DHT22;5840;46.894;15.542;2024-01-30T13:40:31;8.70;92.10
11569;DHT22;5840;46.894;15.542;2024-01-30T13:50:21;8.50;93.00
11569;DHT22;5840;46.894;15.542;2024-01-30T13:52:48;8.40;93.20
11569;DHT22;5840;46.894;15.542;2024-01-30T13:55:14;8.40;92.80
11569;DHT22;5840;46.894;15.542;2024-01-30T13:57:40;8.40;93.40
11569;DHT22;5840;46.894;15.542;2024-01-30T14:00:07;8.30;93.10
11569;DHT22;5840;46.894;15.542;2024-01-30T14:02:34;8.20;93.20
11569;DHT22;5840;46.894;15.542;2024-01-30T14:05:01;8.10;93.90
11569;DHT22;5840;46.894;15.542;2024-01-30T14:07:28;8.10;94.20
11569;DHT22;5840;46.894;15.542;2024-01-30T14:17:18;8.20;93.20
11569;DHT22;5840;46.894;15.542;2024-01-30T14:19:44;8.20;93.90
11569;DHT22;5840;46.894;15.542;2024-01-30T14:22:10;8.20;92.90
11569;DHT22;5840;46.894;15.542;2024-01-30T14:24:36;8.20;93.30
11569;DHT22;5840;46.894;15.542;2024-01-30T14:27:03;8.30;93.80
11569;DHT22;5840;46.894;15.542;2024-01-30T14:29:29;8.30;93.20
11569;DHT22;5840;46.894;15.542;2024-01-30T14:31:55;8.30;93.60
11569;DHT22;5840;46.894;15.542;2024-01-30T14:34:23;8.30;93.50
11569;DHT22;5840;46.894;15.542;2024-01-30T14:44:13;8.10;94.10
11569;DHT22;5840;46.894;15.542;2024-01-30T14:46:40;8.00;94.60
11569;DHT22;5840;46.894;15.542;2024-01-30T14:49:06;8.00;94.20
11569;DHT22;5840;46.894;15.542;2024-01-30T14:51:33;8.00;94.40
11569;DHT22;5840;46.894;15.542;2024-01-30T14:54:00;8.00;94.20
11569;DHT22;5840;46.894;15.542;2024-01-30T14:56:26;7.90;94.10
11569;DHT22;5840;46.894;15.542;2024-01-30T14:58:52;7.90;94.30
11569;DHT22;5840;46.894;15.542;2024-01-30T15:01:19;7.90;94.40
11569;DHT22;5840;46.894;15.542;2024-01-30T15:08:49;7.80;94.60
11569;DHT22;5840;46.894;15.542;2024-01-30T15:11:15;7.70;94.70
11569;DHT22;5840;46.894;15.542;2024-01-30T15:13:42;7.70;95.20
11569;DHT22;5840;46.894;15.542;2024-01-30T15:16:08;7.80;95.20
11569;DHT22;5840;46.894;15.542;2024-01-30T15:18:34;7.70;95.20
11569;DHT22;5840;46.894;15.542;2024-01-30T15:21:01;7.70;95.30
11569;DHT22;5840;46.894;15.542;2024-01-30T15:23:27;7.70;95.10
11569;DHT22;5840;46.894;15.542;2024-01-30T15:25:54;7.70;95.40
11569;DHT22;5840;46.894;15.542;2024-01-30T15:35:45;7.50;95.70
11569;DHT22;5840;46.894;15.542;2024-01-30T15:38:12;7.20;96.20
11569;DHT22;5840;46.894;15.542;2024-01-30T15:40:39;7.20;96.30
11569;DHT22;5840;46.894;15.542;2024-01-30T15:43:05;7.00;96.40
11569;DHT22;5840;46.894;15.542;2024-01-30T15:45:31;6.90;96.70
11569;DHT22;5840;46.894;15.542;2024-01-30T15:47:58;6.80;96.70
11569;DHT22;5840;46.894;15.542;2024-01-30T15:50:24;6.70;96.90
11569;DHT22;5840;46.894;15.542;2024-01-30T15:52:51;6.60;96.90
11569;DHT22;5840;46.894;15.542;2024-01-30T16:00:20;6.50;98.10
11569;DHT22;5840;46.894;15.542;2024-01-30T16:02:46;6.30;97.90
11569;DHT22;5840;46.894;15.542;2024-01-30T16:05:12;6.20;97.90
11569;DHT22;5840;46.894;15.542;2024-01-30T16:07:39;6.10;98.00
11569;DHT22;5840;46.894;15.542;2024-01-30T16:10:06;6.00;98.10
11569;DHT22;5840;46.894;15.542;2024-01-30T16:12:33;5.90;98.20
11569;DHT22;5840;46.894;15.542;2024-01-30T16:15:00;5.80;98.20
11569;DHT22;5840;46.894;15.542;2024-01-30T16:17:27;5.80;98.30
11569;DHT22;5840;46.894;15.542;2024-01-30T16:27:16;5.40;98.70
11569;DHT22;5840;46.894;15.542;2024-01-30T16:29:42;5.10;99.00
11569;DHT22;5840;46.894;15.542;2024-01-30T16:32:09;4.90;99.40
11569;DHT22;5840;46.894;15.542;2024-01-30T16:34:35;4.90;99.70
11569;DHT22;5840;46.894;15.542;2024-01-30T16:37:01;4.80;99.90
11569;DHT22;5840;46.894;15.542;2024-01-30T16:39:28;4.70;99.90
11569;DHT22;5840;46.894;15.542;2024-01-30T16:41:54;4.50;99.90
11569;DHT22;5840;46.894;15.542;2024-01-30T16:44:21;4.50;99.90
11569;DHT22;5840;46.894;15.542;2024-01-30T16:54:16;4.30;99.90
11569;DHT22;5840;46.894;15.542;2024-01-30T16:56:42;4.10;99.90
11569;DHT22;5840;46.894;15.542;2024-01-30T16:59:13;4.10;99.90
11569;DHT22;5840;46.894;15.542;2024-01-30T17:01:39;4.00;99.90
11569;DHT22;5840;46.894;15.542;2024-01-30T17:04:06;4.00;99.90
11569;DHT22;5840;46.894;15.542;2024-01-30T17:06:32;4.00;99.90
11569;DHT22;5840;46.894;15.542;2024-01-30T17:08:59;3.90;99.90
11569;DHT22;5840;46.894;15.542;2024-01-30T17:11:26;3.80;99.90
11569;DHT22;5840;46.894;15.542;2024-01-30T17:18:55;3.70;99.90
11569;DHT22;5840;46.894;15.542;2024-01-30T17:21:22;3.70;99.90
11569;DHT22;5840;46.894;15.542;2024-01-30T17:23:48;3.60;99.90
11569;DHT22;5840;46.894;15.542;2024-01-30T17:26:15;3.60;99.90
11569;DHT22;5840;46.894;15.542;2024-01-30T17:28:41;3.50;99.90
11569;DHT22;5840;46.894;15.542;2024-01-30T17:31:07;3.50;99.90
11569;DHT22;5840;46.894;15.542;2024-01-30T17:33:34;3.40;99.90
11569;DHT22;5840;46.894;15.542;2024-01-30T17:36:01;3.40;99.90
11569;DHT22;5840;46.894;15.542;2024-01-30T17:45:56;3.20;99.90
11569;DHT22;5840;46.894;15.542;2024-01-30T17:48:24;3.00;99.90
11569;DHT22;5840;46.894;15.542;2024-01-30T17:50:51;3.00;99.90
11569;DHT22;5840;46.894;15.542;2024-01-30T17:53:17;3.00;99.90
11569;DHT22;5840;46.894;15.542;2024-01-30T17:55:43;2.90;99.90
11569;DHT22;5840;46.894;15.542;2024-01-30T17:58:10;2.80;99.90
11569;DHT22;5840;46.894;15.542;2024-01-30T18:00:36;2.80;99.90
11569;DHT22;5840;46.894;15.542;2024-01-30T18:03:04;2.70;99.90
11569;DHT22;5840;46.894;15.542;2024-01-30T18:12:59;2.70;99.90
11569;DHT22;5840;46.894;15.542;2024-01-30T18:15:27;2.70;99.90
11569;DHT22;5840;46.894;15.542;2024-01-30T18:17:53;2.60;99.90
11569;DHT22;5840;46.894;15.542;2024-01-30T18:20:19;2.60;99.90
11569;DHT22;5840;46.894;15.542;2024-01-30T18:22:45;2.50;99.90
11569;DHT22;5840;46.894;15.542;2024-01-30T18:25:11;2.60;99.90
11569;DHT22;5840;46.894;15.542;2024-01-30T18:27:38;2.60;99.90
11569;DHT22;5840;46.894;15.542;2024-01-30T18:30:06;2.50;99.90
11569;DHT22;5840;46.894;15.542;2024-01-30T18:37:37;2.50;99.90
11569;DHT22;5840;46.894;15.542;2024-01-30T18:40:04;2.50;99.90
11569;DHT22;5840;46.894;15.542;2024-01-30T18:42:31;2.40;99.90
11569;DHT22;5840;46.894;15.542;2024-01-30T18:44:58;2.40;99.90
11569;DHT22;5840;46.894;15.542;2024-01-30T18:47:25;2.30;99.90
11569;DHT22;5840;46.894;15.542;2024-01-30T18:49:52;2.30;99.90
11569;DHT22;5840;46.894;15.542;2024-01-30T18:52:19;2.20;99.90
11569;DHT22;5840;46.894;15.542;2024-01-30T18:54:49;2.10;99.90
11569;DHT22;5840;46.894;15.542;2024-01-30T19:02:22;2.10;99.90
11569;DHT22;5840;46.894;15.542;2024-01-30T19:04:50;2.00;99.90
11569;DHT22;5840;46.894;15.542;2024-01-30T19:07:19;1.90;99.90
11569;DHT22;5840;46.894;15.542;2024-01-30T19:09:48;1.90;99.90
11569;DHT22;5840;46.894;15.542;2024-01-30T19:12:17;1.80;99.90
11569;DHT22;5840;46.894;15.542;2024-01-30T19:14:44;1.70;99.90
11569;DHT22;5840;46.894;15.542;2024-01-30T19:17:12;1.70;99.90
11569;DHT22;5840;46.894;15.542;2024-01-30T19:27:26;1.50;99.90
11569;DHT22;5840;46.894;15.542;2024-01-30T19:29:54;1.40;99.90
11569;DHT22;5840;46.894;15.542;2024-01-30T19:32:22;1.40;99.90
11569;DHT22;5840;46.894;15.542;2024-01-30T19:34:51;1.30;99.90
11569;DHT22;5840;46.894;15.542;2024-01-30T19:37:19;1.30;99.90
11569;DHT22;5840;46.894;15.542;2024-01-30T19:39:49;1.30;99.90
11569;DHT22;5840;46.894;15.542;2024-01-30T19:42:17;1.20;99.90
11569;DHT22;5840;46.894;15.542;2024-01-30T19:44:47;1.20;99.90
11569;DHT22;5840;46.894;15.542;2024-01-30T19:52:19;1.10;99.90
11569;DHT22;5840;46.894;15.542;2024-01-30T19:54:46;1.10;99.90
11569;DHT22;5840;46.894;15.542;2024-01-30T19:57:13;1.00;99.90
11569;DHT22;5840;46.894;15.542;2024-01-30T19:59:40;0.90;99.90
11569;DHT22;5840;46.894;15.542;2024-01-30T20:02:07;0.90;99.90
11569;DHT22;5840;46.894;15.542;2024-01-30T20:04:35;0.80;99.90
11569;DHT22;5840;46.894;15.542;2024-01-30T20:07:02;0.70;99.90
11569;DHT22;5840;46.894;15.542;2024-01-30T20:12:07;0.70;99.90
11569;DHT22;5840;46.894;15.542;2024-01-30T20:14:33;0.60;99.90
11569;DHT22;5840;46.894;15.542;2024-01-30T20:17:00;0.50;99.90
11569;DHT22;5840;46.894;15.542;2024-01-30T20:19:27;0.40;99.90
11569;DHT22;5840;46.894;15.542;2024-01-30T20:24:22;0.30;99.90